sensor_id;sensor_type;location;lat;lon;timestamp;pressure;altitude;pressure_sealevel;temperature;humidity
57050;BME280;42935;50.966;16.992;2023-04-05T00:01:21;102240.63;;;-2.86;98.08
57050;BME280;42935;50.966;16.992;2023-04-05T00:04:43;102218.67;;;-2.95;99.05
57050;BME280;42935;50.966;16.992;2023-04-05T00:08:09;102224.16;;;-2.89;98.71
57050;BME280;42935;50.966;16.992;2023-04-05T00:11:36;102232.78;;;-2.70;97.92
57050;BME280;42935;50.966;16.992;2023-04-05T00:15:04;102212.28;;;-2.83;98.20
57050;BME280;42935;50.966;16.992;2023-04-05T00:18:23;102220.34;;;-2.79;98.45
57050;BME280;42935;50.966;16.992;2023-04-05T00:21:52;102215.40;;;-2.83;98.35
57050;BME280;42935;50.966;16.992;2023-04-05T00:25:16;102205.88;;;-2.89;96.76
57050;BME280;42935;50.966;16.992;2023-04-05T00:28:34;102226.48;;;-2.79;96.14
57050;BME280;42935;50.966;16.992;2023-04-05T00:31:58;102228.73;;;-2.85;96.34
57050;BME280;42935;50.966;16.992;2023-04-05T00:35:29;102207.07;;;-3.07;96.84
57050;BME280;42935;50.966;16.992;2023-04-05T00:38:56;102232.94;;;-3.03;98.76
57050;BME280;42935;50.966;16.992;2023-04-05T00:42:23;102232.66;;;-3.07;99.62
57050;BME280;42935;50.966;16.992;2023-04-05T00:45:47;102234.52;;;-3.17;100.00
57050;BME280;42935;50.966;16.992;2023-04-05T00:49:10;102232.55;;;-3.16;100.00
57050;BME280;42935;50.966;16.992;2023-04-05T00:52:37;102237.20;;;-3.19;100.00
57050;BME280;42935;50.966;16.992;2023-04-05T00:55:58;102212.80;;;-3.33;100.00
57050;BME280;42935;50.966;16.992;2023-04-05T00:59:20;102223.23;;;-3.27;100.00
57050;BME280;42935;50.966;16.992;2023-04-05T01:02:44;102230.99;;;-3.09;100.00
57050;BME280;42935;50.966;16.992;2023-04-05T01:09:55;102215.83;;;-2.96;100.00
57050;BME280;42935;50.966;16.992;2023-04-05T01:13:24;102184.84;;;-3.08;100.00
57050;BME280;42935;50.966;16.992;2023-04-05T01:16:44;102211.48;;;-2.82;100.00
57050;BME280;42935;50.966;16.992;2023-04-05T01:20:11;102201.46;;;-2.84;100.00
57050;BME280;42935;50.966;16.992;2023-04-05T01:27:15;102204.16;;;-2.79;100.00
57050;BME280;42935;50.966;16.992;2023-04-05T01:30:56;102207.91;;;-2.84;100.00
57050;BME280;42935;50.966;16.992;2023-04-05T01:34:25;102203.41;;;-2.89;100.00
57050;BME280;42935;50.966;16.992;2023-04-05T01:37:49;102200.08;;;-2.86;100.00
57050;BME280;42935;50.966;16.992;2023-04-05T01:41:09;102177.18;;;-3.12;100.00
57050;BME280;42935;50.966;16.992;2023-04-05T01:44:29;102174.41;;;-3.19;100.00
57050;BME280;42935;50.966;16.992;2023-04-05T01:47:49;102195.64;;;-2.98;100.00
57050;BME280;42935;50.966;16.992;2023-04-05T01:51:12;102183.68;;;-3.20;100.00
57050;BME280;42935;50.966;16.992;2023-04-05T01:54:36;102194.74;;;-3.18;100.00
57050;BME280;42935;50.966;16.992;2023-04-05T01:57:54;102180.63;;;-3.29;100.00
57050;BME280;42935;50.966;16.992;2023-04-05T02:01:14;102195.95;;;-3.19;100.00
57050;BME280;42935;50.966;16.992;2023-04-05T02:04:34;102171.45;;;-3.37;100.00
57050;BME280;42935;50.966;16.992;2023-04-05T02:07:51;102196.85;;;-3.36;100.00
57050;BME280;42935;50.966;16.992;2023-04-05T02:11:12;102185.65;;;-3.48;100.00
57050;BME280;42935;50.966;16.992;2023-04-05T02:14:31;102185.53;;;-3.50;100.00
57050;BME280;42935;50.966;16.992;2023-04-05T02:17:52;102178.35;;;-3.53;100.00
57050;BME280;42935;50.966;16.992;2023-04-05T02:21:12;102177.48;;;-3.50;100.00
57050;BME280;42935;50.966;16.992;2023-04-05T02:24:39;102182.56;;;-3.46;100.00
57050;BME280;42935;50.966;16.992;2023-04-05T02:27:56;102167.54;;;-3.53;100.00
57050;BME280;42935;50.966;16.992;2023-04-05T02:31:18;102164.22;;;-3.59;100.00
57050;BME280;42935;50.966;16.992;2023-04-05T02:34:42;102169.15;;;-3.59;100.00
57050;BME280;42935;50.966;16.992;2023-04-05T02:38:01;102176.98;;;-3.60;100.00
57050;BME280;42935;50.966;16.992;2023-04-05T02:41:22;102156.95;;;-3.69;100.00
57050;BME280;42935;50.966;16.992;2023-04-05T02:44:39;102160.27;;;-3.69;100.00
57050;BME280;42935;50.966;16.992;2023-04-05T02:47:59;102151.98;;;-3.76;100.00
57050;BME280;42935;50.966;16.992;2023-04-05T02:51:19;102150.90;;;-3.78;100.00
57050;BME280;42935;50.966;16.992;2023-04-05T02:54:38;102169.48;;;-3.70;100.00
57050;BME280;42935;50.966;16.992;2023-04-05T02:57:58;102163.35;;;-3.73;100.00
57050;BME280;42935;50.966;16.992;2023-04-05T03:01:25;102155.84;;;-3.64;100.00
57050;BME280;42935;50.966;16.992;2023-04-05T03:04:44;102143.58;;;-3.76;100.00
57050;BME280;42935;50.966;16.992;2023-04-05T03:08:03;102149.29;;;-3.73;100.00
57050;BME280;42935;50.966;16.992;2023-04-05T03:11:21;102163.25;;;-3.68;100.00
57050;BME280;42935;50.966;16.992;2023-04-05T03:14:41;102167.98;;;-3.74;100.00
57050;BME280;42935;50.966;16.992;2023-04-05T03:18:11;102166.27;;;-3.87;100.00
57050;BME280;42935;50.966;16.992;2023-04-05T03:21:30;102164.78;;;-3.93;100.00
57050;BME280;42935;50.966;16.992;2023-04-05T03:24:48;102162.65;;;-3.94;100.00
57050;BME280;42935;50.966;16.992;2023-04-05T03:28:09;102163.62;;;-3.88;100.00
57050;BME280;42935;50.966;16.992;2023-04-05T03:31:33;102166.22;;;-3.85;100.00
57050;BME280;42935;50.966;16.992;2023-04-05T03:34:59;102159.76;;;-3.85;100.00
57050;BME280;42935;50.966;16.992;2023-04-05T03:38:21;102147.27;;;-3.90;100.00
57050;BME280;42935;50.966;16.992;2023-04-05T03:41:45;102158.52;;;-3.72;100.00
57050;BME280;42935;50.966;16.992;2023-04-05T03:45:06;102145.79;;;-3.74;100.00
57050;BME280;42935;50.966;16.992;2023-04-05T03:48:23;102139.15;;;-3.68;100.00
57050;BME280;42935;50.966;16.992;2023-04-05T03:51:43;102148.10;;;-3.55;100.00
57050;BME280;42935;50.966;16.992;2023-04-05T03:55:11;102132.06;;;-3.56;100.00
57050;BME280;42935;50.966;16.992;2023-04-05T03:58:31;102134.83;;;-3.48;100.00
57050;BME280;42935;50.966;16.992;2023-04-05T04:01:52;102133.16;;;-3.41;100.00
57050;BME280;42935;50.966;16.992;2023-04-05T04:05:12;102135.55;;;-3.36;100.00
57050;BME280;42935;50.966;16.992;2023-04-05T04:08:32;102139.90;;;-3.30;100.00
57050;BME280;42935;50.966;16.992;2023-04-05T04:11:49;102153.33;;;-3.15;100.00
57050;BME280;42935;50.966;16.992;2023-04-05T04:15:09;102151.29;;;-3.10;100.00
57050;BME280;42935;50.966;16.992;2023-04-05T04:18:28;102132.33;;;-3.19;100.00
57050;BME280;42935;50.966;16.992;2023-04-05T04:21:48;102127.05;;;-3.26;100.00
57050;BME280;42935;50.966;16.992;2023-04-05T04:25:17;102154.70;;;-3.10;100.00
57050;BME280;42935;50.966;16.992;2023-04-05T04:28:42;102164.10;;;-3.07;100.00
57050;BME280;42935;50.966;16.992;2023-04-05T04:32:02;102154.44;;;-3.18;100.00
57050;BME280;42935;50.966;16.992;2023-04-05T04:35:26;102150.63;;;-3.22;100.00
57050;BME280;42935;50.966;16.992;2023-04-05T04:38:42;102158.17;;;-3.09;100.00
57050;BME280;42935;50.966;16.992;2023-04-05T04:42:06;102172.63;;;-3.02;100.00
57050;BME280;42935;50.966;16.992;2023-04-05T04:45:33;102111.95;;;-3.31;100.00
57050;BME280;42935;50.966;16.992;2023-04-05T04:48:56;102160.54;;;-2.96;100.00
57050;BME280;42935;50.966;16.992;2023-04-05T04:52:20;102171.54;;;-2.85;100.00
57050;BME280;42935;50.966;16.992;2023-04-05T04:55:33;102165.29;;;-2.87;100.00
57050;BME280;42935;50.966;16.992;2023-04-05T04:58:54;102168.30;;;-2.80;100.00
57050;BME280;42935;50.966;16.992;2023-04-05T05:02:14;102170.59;;;-2.91;100.00
57050;BME280;42935;50.966;16.992;2023-04-05T05:05:33;102180.87;;;-2.84;100.00
57050;BME280;42935;50.966;16.992;2023-04-05T05:08:53;102169.95;;;-2.83;100.00
57050;BME280;42935;50.966;16.992;2023-04-05T05:12:21;102179.21;;;-2.77;100.00
57050;BME280;42935;50.966;16.992;2023-04-05T05:15:40;102182.48;;;-2.76;100.00
57050;BME280;42935;50.966;16.992;2023-04-05T05:18:57;102176.86;;;-2.76;100.00
57050;BME280;42935;50.966;16.992;2023-04-05T05:22:17;102162.16;;;-2.87;100.00
57050;BME280;42935;50.966;16.992;2023-04-05T05:25:39;102162.53;;;-2.80;100.00
57050;BME280;42935;50.966;16.992;2023-04-05T05:29:00;102173.36;;;-2.69;100.00
57050;BME280;42935;50.966;16.992;2023-04-05T05:32:19;102173.49;;;-2.59;100.00
57050;BME280;42935;50.966;16.992;2023-04-05T05:35:40;102174.35;;;-2.55;100.00
57050;BME280;42935;50.966;16.992;2023-04-05T05:39:06;102112.98;;;-2.81;100.00
57050;BME280;42935;50.966;16.992;2023-04-05T05:42:30;102179.73;;;-2.33;100.00
57050;BME280;42935;50.966;16.992;2023-04-05T05:45:51;102182.50;;;-2.24;100.00
57050;BME280;42935;50.966;16.992;2023-04-05T05:49:12;102185.99;;;-2.14;100.00
57050;BME280;42935;50.966;16.992;2023-04-05T05:52:32;102185.52;;;-2.04;100.00
57050;BME280;42935;50.966;16.992;2023-04-05T05:55:53;102179.74;;;-1.97;100.00
57050;BME280;42935;50.966;16.992;2023-04-05T05:59:18;102181.66;;;-1.84;100.00
57050;BME280;42935;50.966;16.992;2023-04-05T06:02:37;102183.00;;;-1.76;100.00
57050;BME280;42935;50.966;16.992;2023-04-05T06:05:58;102186.10;;;-1.57;100.00
57050;BME280;42935;50.966;16.992;2023-04-05T06:09:23;102187.77;;;-1.42;100.00
57050;BME280;42935;50.966;16.992;2023-04-05T06:12:43;102172.45;;;-1.47;100.00
57050;BME280;42935;50.966;16.992;2023-04-05T06:16:00;102170.22;;;-1.38;100.00
57050;BME280;42935;50.966;16.992;2023-04-05T06:19:17;102157.30;;;-1.30;100.00
57050;BME280;42935;50.966;16.992;2023-04-05T06:22:38;102134.90;;;-1.32;100.00
57050;BME280;42935;50.966;16.992;2023-04-05T06:26:07;102168.23;;;-1.15;100.00
57050;BME280;42935;50.966;16.992;2023-04-05T06:29:34;102163.73;;;-0.93;100.00
57050;BME280;42935;50.966;16.992;2023-04-05T06:32:59;102143.71;;;-1.01;100.00
57050;BME280;42935;50.966;16.992;2023-04-05T06:36:22;102167.23;;;-0.70;100.00
57050;BME280;42935;50.966;16.992;2023-04-05T06:39:47;102153.67;;;-0.77;99.50
57050;BME280;42935;50.966;16.992;2023-04-05T06:43:10;102173.92;;;-0.63;98.01
57050;BME280;42935;50.966;16.992;2023-04-05T06:46:37;102173.82;;;-0.65;98.58
57050;BME280;42935;50.966;16.992;2023-04-05T06:50:07;102149.60;;;-0.70;98.53
57050;BME280;42935;50.966;16.992;2023-04-05T06:53:35;102169.55;;;-0.46;97.45
57050;BME280;42935;50.966;16.992;2023-04-05T06:57:03;102158.45;;;-0.27;97.87
57050;BME280;42935;50.966;16.992;2023-04-05T07:00:31;102165.90;;;-0.18;94.91
57050;BME280;42935;50.966;16.992;2023-04-05T07:03:58;102168.27;;;-0.10;94.80
57050;BME280;42935;50.966;16.992;2023-04-05T07:07:19;102148.83;;;-0.07;95.69
57050;BME280;42935;50.966;16.992;2023-04-05T07:10:38;102169.00;;;0.10;95.53
57050;BME280;42935;50.966;16.992;2023-04-05T07:13:59;102095.67;;;-0.13;92.36
57050;BME280;42935;50.966;16.992;2023-04-05T07:17:25;102167.15;;;0.38;91.30
57050;BME280;42935;50.966;16.992;2023-04-05T07:20:49;102167.45;;;0.39;88.52
57050;BME280;42935;50.966;16.992;2023-04-05T07:24:15;102158.64;;;0.38;88.47
57050;BME280;42935;50.966;16.992;2023-04-05T07:27:43;102168.47;;;0.48;88.17
57050;BME280;42935;50.966;16.992;2023-04-05T07:31:02;102147.76;;;0.48;87.94
57050;BME280;42935;50.966;16.992;2023-04-05T07:34:22;102160.95;;;0.74;88.51
57050;BME280;42935;50.966;16.992;2023-04-05T07:37:46;102153.83;;;0.63;86.60
57050;BME280;42935;50.966;16.992;2023-04-05T07:41:13;102163.48;;;0.81;86.57
57050;BME280;42935;50.966;16.992;2023-04-05T07:44:37;102136.66;;;0.79;86.16
57050;BME280;42935;50.966;16.992;2023-04-05T07:48:01;102150.64;;;0.99;85.92
57050;BME280;42935;50.966;16.992;2023-04-05T07:51:21;102165.45;;;1.39;86.31
57050;BME280;42935;50.966;16.992;2023-04-05T07:54:37;102162.95;;;1.60;85.37
57050;BME280;42935;50.966;16.992;2023-04-05T07:57:57;102161.59;;;1.50;81.77
57050;BME280;42935;50.966;16.992;2023-04-05T08:01:21;102160.80;;;1.68;82.03
57050;BME280;42935;50.966;16.992;2023-04-05T08:04:49;102172.17;;;1.68;81.01
57050;BME280;42935;50.966;16.992;2023-04-05T08:08:48;102172.40;;;1.90;82.88
57050;BME280;42935;50.966;16.992;2023-04-05T08:12:08;102147.97;;;1.72;79.02
57050;BME280;42935;50.966;16.992;2023-04-05T08:15:26;102175.59;;;1.79;77.56
57050;BME280;42935;50.966;16.992;2023-04-05T08:18:49;102175.08;;;1.87;77.20
57050;BME280;42935;50.966;16.992;2023-04-05T08:22:09;102154.79;;;1.90;77.42
57050;BME280;42935;50.966;16.992;2023-04-05T08:25:30;102165.30;;;1.54;77.59
57050;BME280;42935;50.966;16.992;2023-04-05T08:28:53;102174.59;;;1.77;79.19
57050;BME280;42935;50.966;16.992;2023-04-05T08:32:13;102186.37;;;1.82;83.50
57050;BME280;42935;50.966;16.992;2023-04-05T08:35:36;102151.37;;;1.55;83.46
57050;BME280;42935;50.966;16.992;2023-04-05T08:38:56;102177.12;;;1.95;83.88
57050;BME280;42935;50.966;16.992;2023-04-05T08:42:22;102185.63;;;2.18;84.43
57050;BME280;42935;50.966;16.992;2023-04-05T08:45:48;102177.41;;;2.31;83.23
57050;BME280;42935;50.966;16.992;2023-04-05T08:49:08;102155.36;;;2.72;81.48
57050;BME280;42935;50.966;16.992;2023-04-05T08:52:30;102152.02;;;3.08;80.53
57050;BME280;42935;50.966;16.992;2023-04-05T08:55:49;102159.27;;;2.95;82.29
57050;BME280;42935;50.966;16.992;2023-04-05T08:59:09;102162.81;;;3.14;81.11
57050;BME280;42935;50.966;16.992;2023-04-05T09:02:29;102154.53;;;3.53;77.49
57050;BME280;42935;50.966;16.992;2023-04-05T09:05:58;102144.91;;;3.80;78.37
57050;BME280;42935;50.966;16.992;2023-04-05T09:09:15;102140.91;;;3.76;76.22
57050;BME280;42935;50.966;16.992;2023-04-05T09:12:40;102141.82;;;3.63;76.60
57050;BME280;42935;50.966;16.992;2023-04-05T09:16:00;102158.03;;;3.10;77.51
57050;BME280;42935;50.966;16.992;2023-04-05T09:19:15;102157.82;;;3.11;78.18
57050;BME280;42935;50.966;16.992;2023-04-05T09:22:42;102136.23;;;3.59;75.86
57050;BME280;42935;50.966;16.992;2023-04-05T09:29:33;102139.52;;;3.77;78.69
57050;BME280;42935;50.966;16.992;2023-04-05T09:32:54;102129.89;;;3.93;78.44
57050;BME280;42935;50.966;16.992;2023-04-05T09:36:18;102139.02;;;4.01;75.93
57050;BME280;42935;50.966;16.992;2023-04-05T09:39:35;102120.06;;;4.24;77.39
57050;BME280;42935;50.966;16.992;2023-04-05T09:43:00;102134.15;;;4.85;80.32
57050;BME280;42935;50.966;16.992;2023-04-05T09:46:28;102119.02;;;4.85;75.07
57050;BME280;42935;50.966;16.992;2023-04-05T09:49:51;102127.06;;;4.71;72.11
57050;BME280;42935;50.966;16.992;2023-04-05T09:53:12;102129.42;;;4.85;72.01
57050;BME280;42935;50.966;16.992;2023-04-05T09:56:40;102126.53;;;5.04;70.24
57050;BME280;42935;50.966;16.992;2023-04-05T09:59:59;102125.39;;;4.40;68.99
57050;BME280;42935;50.966;16.992;2023-04-05T10:03:26;102112.12;;;4.76;68.69
57050;BME280;42935;50.966;16.992;2023-04-05T10:06:53;102124.45;;;4.29;65.92
57050;BME280;42935;50.966;16.992;2023-04-05T10:10:17;102108.84;;;4.47;67.71
57050;BME280;42935;50.966;16.992;2023-04-05T10:13:39;102094.60;;;3.72;67.13
57050;BME280;42935;50.966;16.992;2023-04-05T10:20:27;102100.28;;;3.78;66.63
57050;BME280;42935;50.966;16.992;2023-04-05T10:24:15;102110.61;;;3.16;68.36
57050;BME280;42935;50.966;16.992;2023-04-05T10:27:30;102092.12;;;3.87;67.77
57050;BME280;42935;50.966;16.992;2023-04-05T10:41:22;102101.04;;;4.79;65.82
57050;BME280;42935;50.966;16.992;2023-04-05T10:44:42;102089.09;;;4.32;67.66
57050;BME280;42935;50.966;16.992;2023-04-05T10:51:35;102082.44;;;4.41;68.59
57050;BME280;42935;50.966;16.992;2023-04-05T10:54:57;102096.28;;;4.13;67.74
57050;BME280;42935;50.966;16.992;2023-04-05T10:58:20;102090.34;;;4.64;66.53
57050;BME280;42935;50.966;16.992;2023-04-05T11:01:45;102085.40;;;5.19;66.13
57050;BME280;42935;50.966;16.992;2023-04-05T11:05:03;102084.30;;;5.24;66.93
57050;BME280;42935;50.966;16.992;2023-04-05T11:08:21;102036.20;;;4.70;69.35
57050;BME280;42935;50.966;16.992;2023-04-05T11:11:43;102068.41;;;4.64;69.79
57050;BME280;42935;50.966;16.992;2023-04-05T11:18:46;102070.50;;;4.57;70.54
57050;BME280;42935;50.966;16.992;2023-04-05T11:22:05;102050.70;;;4.67;70.78
57050;BME280;42935;50.966;16.992;2023-04-05T11:25:26;102053.02;;;5.13;70.49
57050;BME280;42935;50.966;16.992;2023-04-05T11:29:16;102057.55;;;5.11;70.80
57050;BME280;42935;50.966;16.992;2023-04-05T11:32:39;102030.73;;;5.38;69.25
57050;BME280;42935;50.966;16.992;2023-04-05T11:36:05;102034.66;;;5.56;68.70
57050;BME280;42935;50.966;16.992;2023-04-05T11:39:25;102043.54;;;6.03;68.25
57050;BME280;42935;50.966;16.992;2023-04-05T11:42:45;102024.73;;;6.15;66.29
57050;BME280;42935;50.966;16.992;2023-04-05T11:46:05;102032.79;;;5.66;65.92
57050;BME280;42935;50.966;16.992;2023-04-05T11:49:23;102025.20;;;5.06;65.73
57050;BME280;42935;50.966;16.992;2023-04-05T11:52:43;102034.02;;;4.39;65.90
57050;BME280;42935;50.966;16.992;2023-04-05T11:56:10;102039.52;;;4.19;66.40
57050;BME280;42935;50.966;16.992;2023-04-05T11:59:35;102026.86;;;4.12;67.77
57050;BME280;42935;50.966;16.992;2023-04-05T12:02:55;102040.12;;;4.38;66.60
57050;BME280;42935;50.966;16.992;2023-04-05T12:06:14;102029.06;;;4.20;66.24
57050;BME280;42935;50.966;16.992;2023-04-05T12:09:34;102036.41;;;4.46;66.82
57050;BME280;42935;50.966;16.992;2023-04-05T12:12:54;102003.90;;;4.51;65.89
57050;BME280;42935;50.966;16.992;2023-04-05T12:16:09;102030.97;;;5.19;65.98
57050;BME280;42935;50.966;16.992;2023-04-05T12:19:29;102026.51;;;5.26;65.31
57050;BME280;42935;50.966;16.992;2023-04-05T12:22:48;102018.35;;;5.31;66.00
57050;BME280;42935;50.966;16.992;2023-04-05T12:26:11;102013.65;;;5.28;65.09
57050;BME280;42935;50.966;16.992;2023-04-05T12:29:32;102010.11;;;5.51;64.67
57050;BME280;42935;50.966;16.992;2023-04-05T12:32:55;102012.80;;;5.62;63.65
57050;BME280;42935;50.966;16.992;2023-04-05T12:36:17;102000.14;;;5.93;64.49
57050;BME280;42935;50.966;16.992;2023-04-05T12:39:33;102010.74;;;5.81;63.35
57050;BME280;42935;50.966;16.992;2023-04-05T12:43:02;101997.95;;;6.58;63.48
57050;BME280;42935;50.966;16.992;2023-04-05T12:46:21;101999.29;;;6.36;63.38
57050;BME280;42935;50.966;16.992;2023-04-05T12:49:50;102004.12;;;5.71;64.12
57050;BME280;42935;50.966;16.992;2023-04-05T12:53:08;102001.62;;;6.62;61.87
57050;BME280;42935;50.966;16.992;2023-04-05T12:56:37;102004.10;;;7.11;63.15
57050;BME280;42935;50.966;16.992;2023-04-05T12:59:58;102001.41;;;6.96;63.23
57050;BME280;42935;50.966;16.992;2023-04-05T13:03:18;101995.51;;;6.85;64.05
57050;BME280;42935;50.966;16.992;2023-04-05T13:06:40;101981.75;;;6.82;64.74
57050;BME280;42935;50.966;16.992;2023-04-05T13:10:03;101993.70;;;7.12;63.65
57050;BME280;42935;50.966;16.992;2023-04-05T13:13:21;101999.61;;;6.28;65.44
57050;BME280;42935;50.966;16.992;2023-04-05T13:16:38;102001.17;;;5.90;66.41
57050;BME280;42935;50.966;16.992;2023-04-05T13:20:06;101991.30;;;5.33;69.22
57050;BME280;42935;50.966;16.992;2023-04-05T13:23:32;102004.87;;;4.92;71.30
57050;BME280;42935;50.966;16.992;2023-04-05T13:26:58;102002.78;;;5.17;70.62
57050;BME280;42935;50.966;16.992;2023-04-05T13:30:18;102012.34;;;4.88;71.91
57050;BME280;42935;50.966;16.992;2023-04-05T13:33:40;102014.88;;;4.89;72.94
57050;BME280;42935;50.966;16.992;2023-04-05T13:36:58;102007.81;;;4.68;75.51
57050;BME280;42935;50.966;16.992;2023-04-05T13:40:16;102002.38;;;4.72;77.01
57050;BME280;42935;50.966;16.992;2023-04-05T13:43:40;101957.73;;;4.67;77.32
57050;BME280;42935;50.966;16.992;2023-04-05T13:47:04;101995.28;;;5.11;79.10
57050;BME280;42935;50.966;16.992;2023-04-05T13:50:25;102004.37;;;5.36;76.99
57050;BME280;42935;50.966;16.992;2023-04-05T13:53:46;101993.49;;;5.76;76.45
57050;BME280;42935;50.966;16.992;2023-04-05T13:57:10;102001.02;;;6.64;72.65
57050;BME280;42935;50.966;16.992;2023-04-05T14:00:37;101988.34;;;5.98;70.30
57050;BME280;42935;50.966;16.992;2023-04-05T14:04:05;102012.55;;;5.67;75.77
57050;BME280;42935;50.966;16.992;2023-04-05T14:07:28;102027.26;;;5.39;82.66
57050;BME280;42935;50.966;16.992;2023-04-05T14:10:48;102032.55;;;5.17;86.05
57050;BME280;42935;50.966;16.992;2023-04-05T14:14:16;102023.22;;;5.02;87.79
57050;BME280;42935;50.966;16.992;2023-04-05T14:17:37;102022.87;;;4.59;89.76
57050;BME280;42935;50.966;16.992;2023-04-05T14:20:56;102024.00;;;5.04;89.12
57050;BME280;42935;50.966;16.992;2023-04-05T14:24:22;102007.76;;;5.14;84.37
57050;BME280;42935;50.966;16.992;2023-04-05T14:27:42;102022.83;;;5.52;84.06
57050;BME280;42935;50.966;16.992;2023-04-05T14:31:04;102009.05;;;5.66;82.43
57050;BME280;42935;50.966;16.992;2023-04-05T14:34:23;102019.97;;;5.89;80.46
57050;BME280;42935;50.966;16.992;2023-04-05T14:37:44;102011.10;;;5.77;79.81
57050;BME280;42935;50.966;16.992;2023-04-05T14:41:10;101993.02;;;6.10;77.16
57050;BME280;42935;50.966;16.992;2023-04-05T14:44:26;102007.61;;;5.72;76.12
57050;BME280;42935;50.966;16.992;2023-04-05T14:47:46;101986.70;;;5.75;74.81
57050;BME280;42935;50.966;16.992;2023-04-05T14:51:06;102020.95;;;5.87;75.88
57050;BME280;42935;50.966;16.992;2023-04-05T14:54:26;102010.48;;;5.64;75.08
57050;BME280;42935;50.966;16.992;2023-04-05T14:57:55;101993.90;;;5.82;73.59
57050;BME280;42935;50.966;16.992;2023-04-05T15:01:18;102004.82;;;5.67;72.61
57050;BME280;42935;50.966;16.992;2023-04-05T15:04:42;102018.92;;;5.20;76.79
57050;BME280;42935;50.966;16.992;2023-04-05T15:08:07;102010.84;;;5.26;80.38
57050;BME280;42935;50.966;16.992;2023-04-05T15:11:26;102002.42;;;5.48;77.52
57050;BME280;42935;50.966;16.992;2023-04-05T15:14:52;101997.80;;;5.51;78.36
57050;BME280;42935;50.966;16.992;2023-04-05T15:18:21;102005.69;;;5.56;79.97
57050;BME280;42935;50.966;16.992;2023-04-05T15:21:39;101993.00;;;5.78;77.03
57050;BME280;42935;50.966;16.992;2023-04-05T15:25:03;101971.66;;;6.01;75.98
57050;BME280;42935;50.966;16.992;2023-04-05T15:28:22;102009.73;;;5.91;75.45
57050;BME280;42935;50.966;16.992;2023-04-05T15:31:48;102011.23;;;6.16;74.74
57050;BME280;42935;50.966;16.992;2023-04-05T15:35:10;101993.21;;;6.12;74.42
57050;BME280;42935;50.966;16.992;2023-04-05T15:38:32;102004.97;;;5.92;74.87
57050;BME280;42935;50.966;16.992;2023-04-05T15:41:56;101991.32;;;5.37;75.99
57050;BME280;42935;50.966;16.992;2023-04-05T15:45:12;101996.16;;;4.97;78.06
57050;BME280;42935;50.966;16.992;2023-04-05T15:48:31;101985.42;;;4.57;78.25
57050;BME280;42935;50.966;16.992;2023-04-05T15:51:48;101986.50;;;4.57;79.76
57050;BME280;42935;50.966;16.992;2023-04-05T15:55:06;101995.27;;;4.63;81.45
57050;BME280;42935;50.966;16.992;2023-04-05T15:58:26;101995.00;;;4.87;84.83
57050;BME280;42935;50.966;16.992;2023-04-05T16:01:47;101989.87;;;6.21;84.53
57050;BME280;42935;50.966;16.992;2023-04-05T16:05:05;101996.77;;;7.18;81.18
57050;BME280;42935;50.966;16.992;2023-04-05T16:08:23;101994.09;;;7.60;73.71
57050;BME280;42935;50.966;16.992;2023-04-05T16:11:39;101991.69;;;7.65;70.76
57050;BME280;42935;50.966;16.992;2023-04-05T16:15:03;101982.95;;;7.10;68.20
57050;BME280;42935;50.966;16.992;2023-04-05T16:18:20;102005.42;;;6.29;69.76
57050;BME280;42935;50.966;16.992;2023-04-05T16:21:43;101996.49;;;5.81;70.56
57050;BME280;42935;50.966;16.992;2023-04-05T16:25:03;101999.54;;;5.86;70.46
57050;BME280;42935;50.966;16.992;2023-04-05T16:28:19;101991.49;;;5.14;71.86
57050;BME280;42935;50.966;16.992;2023-04-05T16:31:34;102012.29;;;5.00;73.40
57050;BME280;42935;50.966;16.992;2023-04-05T16:34:50;102002.86;;;5.15;73.97
57050;BME280;42935;50.966;16.992;2023-04-05T16:38:08;102002.03;;;4.78;76.05
57050;BME280;42935;50.966;16.992;2023-04-05T16:41:28;102006.83;;;4.65;79.15
57050;BME280;42935;50.966;16.992;2023-04-05T16:44:46;102007.48;;;4.61;82.18
57050;BME280;42935;50.966;16.992;2023-04-05T16:48:06;102006.87;;;4.78;85.64
57050;BME280;42935;50.966;16.992;2023-04-05T16:51:22;102001.21;;;4.90;86.33
57050;BME280;42935;50.966;16.992;2023-04-05T16:54:39;102005.86;;;4.82;85.72
57050;BME280;42935;50.966;16.992;2023-04-05T16:57:57;101995.43;;;4.81;82.68
57050;BME280;42935;50.966;16.992;2023-04-05T17:01:17;102005.92;;;4.49;83.02
57050;BME280;42935;50.966;16.992;2023-04-05T17:04:36;102005.34;;;3.53;92.59
57050;BME280;42935;50.966;16.992;2023-04-05T17:07:52;102003.05;;;3.56;90.51
57050;BME280;42935;50.966;16.992;2023-04-05T17:11:07;102000.02;;;3.96;85.49
57050;BME280;42935;50.966;16.992;2023-04-05T17:14:23;102014.98;;;3.81;83.95
57050;BME280;42935;50.966;16.992;2023-04-05T17:17:43;102004.70;;;3.67;83.34
57050;BME280;42935;50.966;16.992;2023-04-05T17:21:03;102006.59;;;3.22;86.11
57050;BME280;42935;50.966;16.992;2023-04-05T17:24:24;102012.38;;;3.33;83.59
57050;BME280;42935;50.966;16.992;2023-04-05T17:27:49;102025.51;;;2.77;89.01
57050;BME280;42935;50.966;16.992;2023-04-05T17:31:13;102003.93;;;2.86;87.54
57050;BME280;42935;50.966;16.992;2023-04-05T17:34:33;102029.65;;;3.03;85.87
57050;BME280;42935;50.966;16.992;2023-04-05T17:37:51;102027.80;;;2.94;85.27
57050;BME280;42935;50.966;16.992;2023-04-05T17:41:12;102019.77;;;2.65;84.55
57050;BME280;42935;50.966;16.992;2023-04-05T17:44:36;102035.91;;;2.52;84.91
57050;BME280;42935;50.966;16.992;2023-04-05T17:47:57;102029.11;;;2.11;87.36
57050;BME280;42935;50.966;16.992;2023-04-05T17:51:17;102047.46;;;2.07;88.23
57050;BME280;42935;50.966;16.992;2023-04-05T17:54:40;102053.34;;;2.00;88.51
57050;BME280;42935;50.966;16.992;2023-04-05T17:57:56;102057.76;;;1.97;90.35